Time;durP1;ratioP1;P1;durP2;ratioP2;P2;SDS_P1;SDS_P2;PMS_P1;PMS_P2;Temp;Humidity;BMP_temperature;BMP_pressure;BME280_temperature;BME280_humidity;BME280_pressure;Samples;Min_cycle;Max_cycle;Signal;HPM_P1;HPM_P2
2023/06/14 00:02:15;;;;;;;3.13;2.58;;;;;;;20.34;49.63;96123.28;10326732;28;20034;-31
2023/06/14 00:07:16;;;;;;;2.92;2.60;;;;;;;20.34;49.31;96125.00;10344783;28;20080;-31
2023/06/14 00:12:16;;;;;;;3.60;2.95;;;;;;;20.47;47.62;96115.41;10343615;28;20517;-30
2023/06/14 00:17:17;;;;;;;4.13;2.90;;;;;;;20.58;48.06;96118.63;10349364;28;20034;-31
2023/06/14 00:22:17;;;;;;;3.28;2.97;;;;;;;20.52;48.55;96121.28;10335258;28;20034;-30
2023/06/14 00:27:18;;;;;;;4.03;2.97;;;;;;;20.40;48.98;96121.47;10334708;28;20529;-32
2023/06/14 00:32:18;;;;;;;2.97;2.67;;;;;;;20.33;49.19;96118.25;10351858;28;20082;-30
2023/06/14 00:37:19;;;;;;;2.67;2.42;;;;;;;20.33;48.91;96118.25;10350088;28;20026;-31
2023/06/14 00:42:27;;;;;;;5.53;2.93;;;;;;;20.30;49.04;96113.19;10341074;28;20038;-31
2023/06/14 00:47:27;;;;;;;4.85;3.00;;;;;;;20.30;48.94;96119.13;10317998;28;20501;-32
2023/06/14 00:52:29;;;;;;;3.10;2.80;;;;;;;20.30;48.85;96111.50;10340813;28;20030;-31
2023/06/14 00:57:32;;;;;;;3.55;2.97;;;;;;;20.29;48.41;96112.38;10330796;28;20076;-31
2023/06/14 01:02:32;;;;;;;4.90;3.03;;;;;;;20.41;46.61;96107.06;10330641;28;20052;-31
2023/06/14 01:07:55;;;;;;;7.70;3.23;;;;;;;20.49;47.04;96106.09;10339762;28;20056;-30
2023/06/14 01:13:07;;;;;;;3.15;2.85;;;;;;;20.45;46.78;96118.88;10351808;28;20052;-33
2023/06/14 01:18:08;;;;;;;2.97;2.60;;;;;;;20.38;48.11;96113.03;10333377;28;20037;-31
2023/06/14 01:23:08;;;;;;;2.90;2.60;;;;;;;20.34;47.16;96109.75;10336359;28;20411;-30
2023/06/14 01:28:12;;;;;;;2.70;2.27;;;;;;;20.29;47.94;96111.50;10338387;28;20529;-32
2023/06/14 01:33:15;;;;;;;2.85;2.55;;;;;;;20.27;47.69;96113.25;10329080;28;20034;-31
2023/06/14 01:38:17;;;;;;;3.33;2.70;;;;;;;20.37;45.10;96119.84;10323823;28;20034;-32
2023/06/14 01:43:18;;;;;;;3.97;2.78;;;;;;;20.37;46.29;96105.47;10336724;28;20541;-32
2023/06/14 01:48:19;;;;;;;3.78;3.00;;;;;;;20.36;45.78;96108.00;10342599;28;20509;-31
2023/06/14 01:53:20;;;;;;;4.80;3.10;;;;;;;20.38;45.32;96108.81;10328629;28;20577;-30
2023/06/14 01:58:21;;;;;;;3.00;2.70;;;;;;;20.42;44.64;96107.91;10342581;28;20100;-32
2023/06/14 02:03:21;;;;;;;3.72;2.45;;;;;;;20.40;44.14;96107.94;10336540;28;20468;-31
2023/06/14 02:08:22;;;;;;;5.77;3.10;;;;;;;20.38;43.38;96102.88;10350369;28;20042;-30
2023/06/14 02:13:23;;;;;;;3.00;2.70;;;;;;;20.39;45.49;96114.72;10334449;28;20054;-31
2023/06/14 02:18:25;;;;;;;5.70;3.00;;;;;;;20.34;45.47;96105.47;10357216;28;20041;-30
2023/06/14 02:23:25;;;;;;;3.35;2.75;;;;;;;20.32;45.54;96112.31;10345848;28;20045;-31
2023/06/14 02:28:25;;;;;;;5.00;2.53;;;;;;;20.32;43.71;96112.31;10333775;28;20472;-31
2023/06/14 02:33:26;;;;;;;3.23;2.87;;;;;;;20.33;44.35;96113.16;10335206;28;20504;-32
2023/06/14 02:38:26;;;;;;;3.28;2.78;;;;;;;20.30;45.54;96113.19;10336319;28;20562;-31
2023/06/14 02:43:29;;;;;;;3.53;2.40;;;;;;;20.30;44.53;96097.94;10347522;28;20401;-30
2023/06/14 02:48:29;;;;;;;4.85;3.03;;;;;;;20.36;45.12;96106.28;10326242;28;20448;-31
2023/06/14 02:53:30;;;;;;;3.55;2.97;;;;;;;20.35;43.84;96117.31;10351737;28;20026;-31
2023/06/14 02:58:30;;;;;;;4.43;2.90;;;;;;;20.34;44.06;96119.91;10350574;28;20396;-31
2023/06/14 03:03:31;;;;;;;2.70;2.38;;;;;;;20.33;44.33;96125.88;10337489;28;20398;-31
2023/06/14 03:08:38;;;;;;;4.57;2.60;;;;;;;20.30;42.39;96124.22;10326713;28;20026;-31
2023/06/14 03:13:40;;;;;;;2.88;2.58;;;;;;;20.29;45.24;96142.03;10340723;28;20500;-32
2023/06/14 03:18:42;;;;;;;3.33;2.85;;;;;;;20.28;42.08;96140.34;10342295;28;20391;-32
2023/06/14 03:23:43;;;;;;;3.60;2.70;;;;;;;20.24;43.37;96148.88;10346171;28;20027;-31
2023/06/14 03:28:46;;;;;;;2.95;2.65;;;;;;;20.23;43.32;96152.28;10322185;28;20046;-31
2023/06/14 03:33:47;;;;;;;5.07;3.25;;;;;;;20.18;41.80;96151.53;10324488;28;20026;-32
2023/06/14 03:38:47;;;;;;;3.83;2.80;;;;;;;20.24;43.15;96154.81;10330167;28;20442;-31
2023/06/14 03:43:50;;;;;;;6.80;2.80;;;;;;;20.27;42.83;96164.09;10327841;28;20026;-31
2023/06/14 03:48:51;;;;;;;4.60;3.13;;;;;;;19.24;40.90;96167.19;10326157;28;20042;-32
2023/06/14 03:53:52;;;;;;;3.75;2.97;;;;;;;18.49;40.36;96174.72;10335515;28;20029;-31
2023/06/14 03:58:53;;;;;;;3.38;2.70;;;;;;;18.25;39.98;96169.81;10333852;28;20556;-30
2023/06/14 04:03:57;;;;;;;6.47;3.17;;;;;;;18.05;40.39;96171.63;10333170;28;20409;-31
2023/06/14 04:09:03;;;;;;;4.53;3.53;;;;;;;18.06;40.20;96170.78;10332873;28;20100;-31
2023/06/14 04:14:03;;;;;;;5.75;2.60;;;;;;;18.14;39.96;96181.69;10340748;28;20046;-30
2023/06/14 04:19:04;;;;;;;3.58;3.00;;;;;;;18.09;39.74;96183.44;10347499;28;20029;-31
2023/06/14 04:24:04;;;;;;;5.53;3.43;;;;;;;17.95;40.09;96195.34;10324297;28;20034;-30
2023/06/14 04:29:07;;;;;;;4.60;3.20;;;;;;;17.79;39.48;96198.81;10339243;28;20034;-31
2023/06/14 04:34:17;;;;;;;5.00;3.28;;;;;;;17.87;39.90;96199.63;10337719;28;20417;-30
2023/06/14 04:39:25;;;;;;;4.28;2.55;;;;;;;17.80;40.24;96206.41;10339275;28;20030;-32
2023/06/14 04:44:29;;;;;;;3.83;2.80;;;;;;;18.75;41.21;96205.75;10339188;28;20034;-31
2023/06/14 04:49:32;;;;;;;4.38;3.20;;;;;;;19.44;39.20;96212.66;10330306;28;20030;-31
2023/06/14 04:54:33;;;;;;;4.10;2.75;;;;;;;19.49;39.50;96211.72;10345268;28;20030;-31
2023/06/14 04:59:35;;;;;;;5.63;2.47;;;;;;;19.54;41.76;96219.28;10346622;28;20051;-31
2023/06/14 05:04:39;;;;;;;4.13;2.58;;;;;;;19.62;42.49;96208.19;10331954;28;20030;-30
2023/06/14 05:09:40;;;;;;;5.60;3.22;;;;;;;19.65;42.62;96218.31;10330496;28;20034;-30
2023/06/14 05:14:43;;;;;;;3.27;2.70;;;;;;;19.69;43.05;96219.09;10353872;28;20038;-31
2023/06/14 05:19:44;;;;;;;5.85;2.78;;;;;;;19.72;43.32;96224.13;10343358;28;20351;-31
2023/06/14 05:24:45;;;;;;;3.95;2.42;;;;;;;19.85;43.40;96218.88;10334163;28;20026;-30
2023/06/14 05:29:46;;;;;;;6.72;3.10;;;;;;;19.95;39.90;96217.91;10339542;28;20121;-30
2023/06/14 05:34:46;;;;;;;5.30;2.40;;;;;;;19.85;42.85;96223.13;10358351;28;20060;-31
2023/06/14 05:39:46;;;;;;;7.30;3.10;;;;;;;19.89;43.76;96223.06;10342186;28;20069;-32
2023/06/14 05:44:47;;;;;;;2.53;2.33;;;;;;;19.90;44.05;96229.81;10336008;28;20041;-30
2023/06/14 05:49:47;;;;;;;3.13;2.60;;;;;;;19.90;44.34;96224.75;10347866;28;20038;-31
2023/06/14 05:54:47;;;;;;;4.13;2.53;;;;;;;19.89;44.50;96224.75;10333324;28;20069;-31
2023/06/14 05:59:48;;;;;;;5.10;2.53;;;;;;;19.92;44.72;96227.28;10330399;28;20023;-31
2023/06/14 06:04:48;;;;;;;4.70;3.05;;;;;;;19.92;45.00;96224.72;10346291;28;20042;-31
2023/06/14 06:09:49;;;;;;;4.30;2.83;;;;;;;19.94;45.01;96220.47;10343264;28;20505;-31
2023/06/14 06:14:49;;;;;;;2.63;2.40;;;;;;;19.96;45.07;96228.91;10331574;28;20281;-31
2023/06/14 06:19:49;;;;;;;2.93;2.30;;;;;;;20.15;44.13;96226.13;10351930;28;20402;-30
2023/06/14 06:24:50;;;;;;;4.27;2.67;;;;;;;20.25;43.83;96226.84;10345120;28;20293;-31
2023/06/14 06:29:51;;;;;;;2.75;2.40;;;;;;;20.16;44.86;96232.03;10329204;28;20034;-31
2023/06/14 06:34:51;;;;;;;2.90;2.60;;;;;;;20.06;45.57;96235.56;10346477;28;20045;-31
2023/06/14 06:39:52;;;;;;;2.30;1.90;;;;;;;20.04;45.65;96232.19;10329128;28;20409;-31
2023/06/14 06:44:52;;;;;;;2.63;2.43;;;;;;;20.02;45.88;96234.72;10360894;28;20164;-31
2023/06/14 06:49:53;;;;;;;2.38;2.03;;;;;;;20.02;46.02;96242.34;10344637;28;20034;-30
2023/06/14 06:54:55;;;;;;;2.53;2.33;;;;;;;20.04;45.99;96238.16;10336035;28;20169;-31
2023/06/14 06:59:56;;;;;;;3.10;2.63;;;;;;;20.06;46.02;96238.97;10328108;28;20402;-31
2023/06/14 07:04:57;;;;;;;3.60;2.38;;;;;;;20.02;46.08;96236.44;10334868;28;20203;-31
2023/06/14 07:09:57;;;;;;;2.93;2.47;;;;;;;20.09;45.85;96241.44;10335603;28;20037;-30
2023/06/14 07:14:57;;;;;;;3.37;2.40;;;;;;;20.30;45.04;96236.06;10335328;28;20153;-31
2023/06/14 07:19:58;;;;;;;4.10;2.20;;;;;;;20.34;45.34;96232.59;10349951;28;20749;-31
2023/06/14 07:24:58;;;;;;;4.37;2.63;;;;;;;20.24;45.86;96235.28;10345321;28;20577;-31
2023/06/14 07:29:59;;;;;;;2.97;2.27;;;;;;;20.19;46.03;96237.09;10334504;28;20049;-30
2023/06/14 07:34:59;;;;;;;2.73;2.43;;;;;;;20.17;46.27;96234.56;10340071;28;20124;-30
2023/06/14 07:39:59;;;;;;;2.60;2.40;;;;;;;20.17;46.36;96238.81;10334934;28;20485;-31
2023/06/14 07:45:00;;;;;;;3.07;2.17;;;;;;;20.16;46.74;96237.09;10328835;28;20289;-31
2023/06/14 07:50:00;;;;;;;3.60;2.20;;;;;;;20.15;46.59;96235.44;10333679;28;20074;-30
2023/06/14 07:55:00;;;;;;;2.93;2.23;;;;;;;20.17;46.37;96234.56;10326382;28;20353;-31
2023/06/14 08:00:01;;;;;;;2.50;2.30;;;;;;;20.15;46.79;96236.28;10342927;28;20041;-31
2023/06/14 08:05:01;;;;;;;2.83;2.30;;;;;;;20.28;46.29;96242.03;10308663;28;20432;-33
2023/06/14 08:10:02;;;;;;;3.60;2.20;;;;;;;20.42;45.82;96236.72;10326517;28;20045;-30
2023/06/14 08:15:03;;;;;;;2.22;2.03;;;;;;;20.42;46.07;96235.88;10339259;28;20446;-31
2023/06/14 08:20:05;;;;;;;2.47;2.28;;;;;;;20.28;46.58;96221.69;10327723;28;20637;-31
2023/06/14 08:25:06;;;;;;;2.10;1.90;;;;;;;20.21;47.18;96235.34;10342312;28;20073;-30
2023/06/14 08:30:08;;;;;;;2.25;2.05;;;;;;;20.24;47.04;96245.47;10333972;28;20095;-31
2023/06/14 08:35:08;;;;;;;3.78;1.80;;;;;;;20.20;47.27;96234.53;10325907;28;20039;-30
2023/06/14 08:40:19;;;;;;;3.17;2.28;;;;;;;20.26;47.17;96243.75;10333557;28;20390;-30
2023/06/14 08:45:21;;;;;;;2.70;2.38;;;;;;;20.22;47.32;96234.50;10342098;28;20521;-30
2023/06/14 08:50:23;;;;;;;2.22;2.03;;;;;;;20.17;47.61;96239.63;10355922;28;20045;-30
2023/06/14 08:55:27;;;;;;;2.45;2.00;;;;;;;20.18;47.51;96245.56;10340557;28;20038;-30
2023/06/14 09:00:28;;;;;;;1.77;1.67;;;;;;;20.39;46.98;96248.63;10345758;28;20244;-31
2023/06/14 09:05:28;;;;;;;2.28;1.88;;;;;;;20.40;46.97;96256.22;10354898;28;20045;-32
2023/06/14 09:10:33;;;;;;;3.60;2.38;;;;;;;20.28;47.58;96253.03;10340668;28;20125;-31
2023/06/14 09:15:35;;;;;;;2.08;1.88;;;;;;;20.22;47.71;96253.13;10348330;28;20112;-31
2023/06/14 09:20:35;;;;;;;2.42;2.10;;;;;;;20.18;47.38;96250.66;10337610;28;20442;-31
2023/06/14 09:25:46;;;;;;;2.30;2.10;;;;;;;20.15;48.06;96254.06;10342341;28;20058;-31
2023/06/14 09:30:46;;;;;;;1.90;1.65;;;;;;;20.21;48.01;96255.69;10360782;28;20085;-31
2023/06/14 09:35:51;;;;;;;2.77;2.10;;;;;;;20.21;47.49;96255.69;10336762;28;20520;-31
2023/06/14 09:40:51;;;;;;;3.22;2.08;;;;;;;20.18;47.68;96255.75;10348099;28;20026;-31
2023/06/14 09:45:51;;;;;;;2.03;1.83;;;;;;;20.17;48.15;96259.16;10350047;28;20030;-31
2023/06/14 09:50:57;;;;;;;2.08;1.80;;;;;;;20.28;47.87;96265.72;10353140;28;20034;-31
2023/06/14 09:55:58;;;;;;;3.97;2.03;;;;;;;20.44;47.53;96267.19;10330609;28;20486;-31
2023/06/14 10:00:59;;;;;;;2.38;1.90;;;;;;;20.40;47.70;96258.78;10360104;28;20036;-31
2023/06/14 10:06:03;;;;;;;2.55;2.08;;;;;;;20.30;48.15;96258.09;10376771;28;20557;-31
2023/06/14 10:11:03;;;;;;;2.67;2.10;;;;;;;20.24;48.04;96259.03;10346311;28;20030;-32
2023/06/14 10:16:23;;;;;;;1.92;1.73;;;;;;;20.20;48.16;96254.00;10353359;28;20038;-31
2023/06/14 10:21:43;;;;;;;2.10;1.90;;;;;;;20.16;48.30;96243.03;10354234;28;20038;-31
2023/06/14 10:26:52;;;;;;;2.30;2.10;;;;;;;20.19;48.19;96250.63;10337059;28;20398;-30
2023/06/14 10:31:56;;;;;;;2.40;2.20;;;;;;;20.18;48.24;96241.31;10329453;28;20031;-32
2023/06/14 10:37:02;;;;;;;2.20;2.00;;;;;;;20.12;48.60;96235.47;10337130;28;20030;-31
2023/06/14 10:42:04;;;;;;;2.70;2.33;;;;;;;20.16;48.49;96237.09;10349574;28;20109;-31
2023/06/14 10:47:11;;;;;;;3.05;2.05;;;;;;;20.45;48.05;96246.03;10338833;28;20038;-31
2023/06/14 10:52:18;;;;;;;4.97;3.22;;;;;;;20.50;48.35;96242.53;10355977;28;20054;-31
2023/06/14 10:57:19;;;;;;;10.43;2.47;;;;;;;20.36;48.52;96228.31;10337529;28;20089;-30
2023/06/14 11:02:19;;;;;;;7.63;3.33;;;;;;;20.29;48.43;96234.41;10350138;28;20092;-32
2023/06/14 11:07:47;;;;;;;12.80;3.47;;;;;;;20.26;48.60;96243.75;10327777;28;20092;-31
2023/06/14 11:12:48;;;;;;;4.40;1.85;;;;;;;20.42;48.84;96243.50;10352364;28;20042;-30
2023/06/14 11:17:56;;;;;;;8.05;2.60;;;;;;;20.37;48.94;96232.56;10326795;28;20076;-31
2023/06/14 11:22:57;;;;;;;5.47;2.53;;;;;;;20.41;49.10;96234.19;10351112;28;20034;-31
2023/06/14 11:27:58;;;;;;;6.63;2.53;;;;;;;20.40;49.00;96233.34;10335084;28;20125;-31
2023/06/14 11:32:59;;;;;;;15.80;2.63;;;;;;;20.40;49.24;96227.44;10332406;28;20041;-31
2023/06/14 11:38:01;;;;;;;4.38;2.40;;;;;;;20.51;49.13;96216.22;10330316;28;20211;-31
2023/06/14 11:43:02;;;;;;;5.28;2.22;;;;;;;20.63;49.19;96220.28;10334482;28;20093;-31
2023/06/14 11:48:02;;;;;;;3.00;2.25;;;;;;;20.62;48.84;96216.06;10342693;28;20109;-31
2023/06/14 11:53:07;;;;;;;5.68;2.38;;;;;;;20.51;49.48;96221.31;10338894;28;20045;-30
2023/06/14 11:58:08;;;;;;;9.23;2.97;;;;;;;20.50;49.55;96214.56;10339057;28;20025;-31
2023/06/14 12:03:08;;;;;;;5.75;2.78;;;;;;;20.48;49.60;96216.25;10342966;28;20033;-31
2023/06/14 12:08:09;;;;;;;14.15;3.63;;;;;;;20.41;49.74;96198.59;10343251;28;20039;-32
2023/06/14 12:13:10;;;;;;;8.93;3.05;;;;;;;20.42;49.81;96201.13;10344740;28;20433;-32
2023/06/14 12:18:10;;;;;;;7.78;4.00;;;;;;;20.37;49.73;96201.22;10341039;28;20042;-31
2023/06/14 12:23:11;;;;;;;13.70;6.22;;;;;;;20.31;49.78;96196.22;10341275;28;20088;-31
2023/06/14 12:28:11;;;;;;;9.53;3.53;;;;;;;20.32;49.82;96198.75;10338976;28;20052;-31
2023/06/14 12:33:12;;;;;;;9.80;4.30;;;;;;;20.56;49.54;96204.25;10336102;28;20047;-30
2023/06/14 12:38:12;;;;;;;5.50;4.00;;;;;;;20.58;50.17;96206.78;10350166;28;20426;-31
2023/06/14 12:43:12;;;;;;;11.13;4.20;;;;;;;20.47;50.91;96199.34;10341679;28;20033;-31
2023/06/14 12:48:13;;;;;;;22.20;4.23;;;;;;;20.40;51.61;96205.38;10341071;28;20049;-30
2023/06/14 12:53:13;;;;;;;6.53;3.10;;;;;;;20.42;50.84;96197.72;10348012;28;20038;-30
2023/06/14 12:58:14;;;;;;;8.27;3.45;;;;;;;20.51;50.45;96206.06;10340592;28;20042;-31
2023/06/14 13:03:15;;;;;;;8.45;3.38;;;;;;;20.46;51.28;96204.47;10347443;28;20085;-32
2023/06/14 13:08:15;;;;;;;7.35;3.70;;;;;;;20.54;50.49;96206.00;10339796;28;20037;-31
2023/06/14 13:13:15;;;;;;;6.77;3.17;;;;;;;20.51;50.96;96206.06;10362217;28;20068;-31
2023/06/14 13:18:16;;;;;;;5.97;3.33;;;;;;;20.46;51.03;96207.81;10340802;28;20288;-30
2023/06/14 13:23:17;;;;;;;7.90;3.80;;;;;;;20.57;50.98;96215.28;10339489;28;20510;-30
2023/06/14 13:28:17;;;;;;;16.58;3.72;;;;;;;20.77;51.38;96209.00;10352670;28;20034;-30
2023/06/14 13:33:17;;;;;;;9.27;3.00;;;;;;;20.74;50.54;96204.00;10349234;28;20034;-31
2023/06/14 13:38:18;;;;;;;11.47;3.63;;;;;;;20.63;51.02;96205.84;10338634;28;20069;-31
2023/06/14 13:43:18;;;;;;;3.33;2.80;;;;;;;20.45;51.65;96200.25;10339489;28;20034;-31
2023/06/14 13:48:19;;;;;;;8.80;3.53;;;;;;;20.45;51.57;96197.69;10339102;28;20434;-31
2023/06/14 13:53:19;;;;;;;4.38;3.03;;;;;;;20.44;51.47;96203.63;10347400;28;20034;-31
2023/06/14 13:58:20;;;;;;;3.70;2.73;;;;;;;20.39;51.76;96201.16;10354824;28;20109;-31
2023/06/14 14:03:20;;;;;;;5.50;2.90;;;;;;;20.39;51.61;96195.25;10338903;28;20054;-30
2023/06/14 14:08:20;;;;;;;6.00;3.03;;;;;;;20.43;51.61;96194.31;10346639;28;20631;-30
2023/06/14 14:13:21;;;;;;;6.27;3.20;;;;;;;20.48;51.55;96195.09;10345106;28;20513;-31
2023/06/14 14:18:21;;;;;;;5.32;2.90;;;;;;;20.63;51.11;96197.41;10338813;28;20426;-31
2023/06/14 14:23:22;;;;;;;6.50;2.97;;;;;;;20.73;50.72;96191.28;10347064;28;20387;-31
2023/06/14 14:28:22;;;;;;;5.13;2.60;;;;;;;20.68;50.78;96203.22;10362123;28;20293;-31
2023/06/14 14:33:25;;;;;;;6.53;2.70;;;;;;;20.50;51.74;96199.31;10350023;28;20088;-31
2023/06/14 14:38:25;;;;;;;3.17;2.70;;;;;;;20.44;51.48;96204.47;10342555;28;20022;-30
2023/06/14 14:43:26;;;;;;;3.43;2.70;;;;;;;20.39;51.52;96211.31;10337896;28;20034;-31
2023/06/14 14:48:29;;;;;;;7.32;2.72;;;;;;;20.42;52.07;96206.22;10354370;28;20029;-31
2023/06/14 14:53:29;;;;;;;7.25;3.35;;;;;;;20.44;51.63;96199.38;10354046;28;20022;-31
2023/06/14 14:58:30;;;;;;;4.18;2.97;;;;;;;20.43;51.91;96199.41;10359670;28;20041;-31
2023/06/14 15:03:30;;;;;;;3.70;2.57;;;;;;;20.44;51.75;96201.94;10336747;28;20038;-32
2023/06/14 15:08:30;;;;;;;4.47;2.87;;;;;;;20.55;51.95;96199.22;10344107;28;20727;-32
2023/06/14 15:13:33;;;;;;;5.30;3.10;;;;;;;20.72;52.07;96210.78;10350734;28;20038;-31
2023/06/14 15:18:33;;;;;;;3.53;2.88;;;;;;;20.70;51.52;96209.97;10343682;28;20030;-31
2023/06/14 15:23:34;;;;;;;2.60;2.30;;;;;;;20.61;52.18;96209.28;10342943;28;20034;-31
2023/06/14 15:28:34;;;;;;;4.20;3.20;;;;;;;20.59;51.54;96206.78;10349814;28;20351;-31
2023/06/14 15:33:35;;;;;;;6.68;4.22;;;;;;;20.58;52.48;96212.75;10335473;28;20801;-31
2023/06/14 15:38:35;;;;;;;8.40;4.77;;;;;;;20.60;52.34;96205.91;10343261;28;20038;-31
2023/06/14 15:43:36;;;;;;;11.13;4.13;;;;;;;20.63;53.05;96208.41;10343676;28;20060;-30
2023/06/14 15:48:36;;;;;;;7.75;4.57;;;;;;;20.65;53.12;96214.28;10346250;28;20081;-31
2023/06/14 15:53:37;;;;;;;4.50;3.97;;;;;;;20.66;52.95;96216.00;10351901;28;20037;-31
2023/06/14 15:58:37;;;;;;;9.38;3.90;;;;;;;20.67;52.80;96215.13;10343373;28;20049;-31
2023/06/14 16:03:37;;;;;;;3.63;2.80;;;;;;;20.78;52.59;96208.16;10351866;28;20026;-30
2023/06/14 16:08:38;;;;;;;3.07;2.77;;;;;;;20.86;52.20;96203.78;10334616;28;20118;-32
2023/06/14 16:13:44;;;;;;;4.88;2.75;;;;;;;20.82;52.08;96207.22;10348377;28;20293;-30
2023/06/14 16:18:44;;;;;;;3.65;3.20;;;;;;;20.77;52.64;96219.19;10333681;28;20426;-30
2023/06/14 16:23:45;;;;;;;9.47;3.33;;;;;;;20.67;52.57;96217.66;10346682;28;20042;-31
2023/06/14 16:28:45;;;;;;;9.18;3.97;;;;;;;20.60;52.50;96226.25;10349155;28;20124;-31
2023/06/14 16:33:46;;;;;;;7.53;3.47;;;;;;;20.63;52.61;96228.75;10345296;28;20045;-33
2023/06/14 16:38:47;;;;;;;9.57;3.90;;;;;;;20.65;52.32;96237.19;10343590;28;20290;-30
2023/06/14 16:43:47;;;;;;;4.80;3.00;;;;;;;20.68;52.28;96238.84;10340906;28;20042;-31
2023/06/14 16:48:47;;;;;;;3.37;2.70;;;;;;;20.63;51.98;96238.91;10346185;28;20030;-31
2023/06/14 16:53:48;;;;;;;8.10;3.90;;;;;;;20.74;53.61;96238.75;10366359;28;20038;-31
2023/06/14 16:58:48;;;;;;;9.33;3.93;;;;;;;20.87;53.19;96243.63;10336618;28;20124;-31
2023/06/14 17:03:49;;;;;;;4.80;3.47;;;;;;;20.91;52.24;96255.47;10344926;28;20038;-33
2023/06/14 17:08:51;;;;;;;5.57;3.60;;;;;;;20.82;52.27;96253.00;10347421;28;20044;-31
2023/06/14 17:13:51;;;;;;;4.43;3.03;;;;;;;20.74;52.23;96265.03;10348234;28;20246;-29
2023/06/14 17:18:52;;;;;;;6.90;3.72;;;;;;;20.75;52.40;96273.50;10355802;28;20026;-31
2023/06/14 17:23:52;;;;;;;5.33;3.67;;;;;;;20.69;52.57;96279.53;10340854;28;20040;-32
2023/06/14 17:28:54;;;;;;;5.77;2.73;;;;;;;20.66;52.30;96289.75;10339176;28;20656;-32
2023/06/14 17:33:54;;;;;;;3.85;3.45;;;;;;;20.65;52.61;96298.22;10347137;28;20519;-31
2023/06/14 17:38:55;;;;;;;6.78;3.35;;;;;;;20.66;52.56;96297.41;10333594;28;20030;-31
2023/06/14 17:43:56;;;;;;;5.90;3.40;;;;;;;20.70;52.81;96301.56;10351149;28;20033;-31
2023/06/14 17:48:56;;;;;;;5.80;3.40;;;;;;;20.83;55.09;96309.84;10338205;28;20117;-31
2023/06/14 17:53:56;;;;;;;20.03;4.70;;;;;;;20.95;55.11;96310.53;10331789;28;20026;-31
2023/06/14 17:58:58;;;;;;;4.27;3.07;;;;;;;20.86;52.67;96310.66;10358562;28;20405;-30
2023/06/14 18:03:59;;;;;;;3.53;3.00;;;;;;;20.74;52.35;96326.09;10354396;28;20041;-31
2023/06/14 18:08:59;;;;;;;6.30;3.07;;;;;;;20.70;52.74;96331.22;10350841;28;20038;-31
2023/06/14 18:14:00;;;;;;;6.17;2.70;;;;;;;20.66;53.08;96333.00;10351121;28;20291;-31
2023/06/14 18:19:00;;;;;;;3.78;2.70;;;;;;;20.65;52.96;96345.75;10340642;28;20041;-31
2023/06/14 18:24:01;;;;;;;3.90;2.90;;;;;;;20.61;53.00;96344.94;10337929;28;20041;-31
2023/06/14 18:29:01;;;;;;;8.93;3.08;;;;;;;20.64;52.99;96356.78;10341080;28;20027;-31
2023/06/14 18:34:02;;;;;;;7.00;2.90;;;;;;;20.61;52.98;96355.13;10346816;28;20053;-31
2023/06/14 18:39:02;;;;;;;5.20;3.00;;;;;;;20.69;54.09;96363.47;10335784;28;20410;-31
2023/06/14 18:44:03;;;;;;;6.05;3.40;;;;;;;20.87;53.39;96367.50;10354116;28;20296;-30
2023/06/14 18:49:03;;;;;;;5.70;2.80;;;;;;;20.90;52.93;96367.44;10341647;28;20377;-31
2023/06/14 18:54:04;;;;;;;4.93;2.77;;;;;;;20.77;52.80;96374.38;10348856;28;20421;-31
2023/06/14 18:59:04;;;;;;;4.75;3.10;;;;;;;20.69;52.77;96373.66;10343050;28;20030;-30
2023/06/14 19:04:04;;;;;;;4.10;2.97;;;;;;;20.66;53.13;96377.94;10342784;28;20404;-31
2023/06/14 19:09:05;;;;;;;2.50;2.30;;;;;;;20.69;53.03;96382.97;10341536;28;20105;-31
2023/06/14 19:14:05;;;;;;;4.57;2.90;;;;;;;20.71;53.44;96386.38;10343204;28;20048;-32
2023/06/14 19:19:06;;;;;;;4.35;3.30;;;;;;;20.74;53.65;96383.75;10332887;28;20132;-32
2023/06/14 19:24:06;;;;;;;4.23;3.00;;;;;;;20.89;52.54;96397.13;10352335;28;20406;-32
2023/06/14 19:29:06;;;;;;;3.23;2.83;;;;;;;20.93;52.23;96403.00;10344144;28;20551;-31
2023/06/14 19:34:07;;;;;;;3.87;2.97;;;;;;;20.77;52.41;96414.25;10352168;28;20300;-31
2023/06/14 19:39:07;;;;;;;3.47;2.57;;;;;;;20.68;52.58;96425.41;10370535;28;20042;-32
2023/06/14 19:44:07;;;;;;;3.43;2.70;;;;;;;20.66;52.33;96437.31;10377619;28;20034;-31
2023/06/14 19:49:08;;;;;;;5.03;2.70;;;;;;;20.65;52.61;96442.41;10379131;28;20030;-30
2023/06/14 19:54:08;;;;;;;4.27;3.00;;;;;;;20.62;52.46;96443.28;10353510;28;20053;-31
2023/06/14 19:59:08;;;;;;;3.37;2.90;;;;;;;20.62;52.31;96452.63;10367594;28;20300;-31
2023/06/14 20:04:09;;;;;;;3.57;2.90;;;;;;;20.83;51.12;96458.28;10380849;28;20042;-31
2023/06/14 20:09:13;;;;;;;4.18;3.10;;;;;;;20.88;51.14;96466.69;10339369;28;20498;-31
2023/06/14 20:14:13;;;;;;;4.57;2.50;;;;;;;20.76;51.71;96477.03;10348913;28;20120;-31
2023/06/14 20:19:14;;;;;;;3.00;2.60;;;;;;;20.66;52.12;96472.06;10349810;28;20102;-31
2023/06/14 20:24:14;;;;;;;3.55;2.40;;;;;;;20.60;52.18;96470.44;10357629;28;20430;-31
2023/06/14 20:29:15;;;;;;;3.15;2.85;;;;;;;20.62;52.18;96483.16;10342999;28;20387;-31
2023/06/14 20:34:15;;;;;;;4.27;2.53;;;;;;;20.61;52.41;96476.34;10336136;28;20414;-30
2023/06/14 20:39:15;;;;;;;6.23;2.80;;;;;;;20.59;52.27;96484.03;10345028;28;20034;-31
2023/06/14 20:44:16;;;;;;;7.80;3.10;;;;;;;20.65;50.95;96486.47;10364538;28;20034;-32
2023/06/14 20:49:16;;;;;;;4.95;3.33;;;;;;;20.84;50.18;96487.94;10375572;28;20490;-31
2023/06/14 20:54:17;;;;;;;3.83;2.83;;;;;;;20.84;49.99;96489.63;10383892;28;20104;-31
2023/06/14 20:59:17;;;;;;;5.50;3.07;;;;;;;20.74;51.02;96482.97;10346065;28;20054;-30
2023/06/14 21:04:17;;;;;;;3.23;2.67;;;;;;;20.68;51.75;96491.53;10349790;28;20220;-30
2023/06/14 21:09:18;;;;;;;2.90;2.60;;;;;;;20.64;51.80;96489.88;10364991;28;20026;-30
2023/06/14 21:14:18;;;;;;;2.70;2.50;;;;;;;20.62;52.10;96494.16;10385977;28;20048;-30
2023/06/14 21:19:19;;;;;;;3.87;2.83;;;;;;;20.59;52.04;96494.19;10357666;28;20149;-30
2023/06/14 21:24:19;;;;;;;2.97;2.40;;;;;;;20.54;52.10;96490.84;10351625;28;20061;-30
2023/06/14 21:29:19;;;;;;;2.90;2.60;;;;;;;20.57;52.08;96495.06;10344243;28;20030;-29
2023/06/14 21:34:19;;;;;;;5.00;2.83;;;;;;;20.77;51.65;96499.06;10347565;28;20033;-30
2023/06/14 21:39:20;;;;;;;5.87;2.87;;;;;;;20.87;51.60;96492.19;10358436;28;20034;-30
2023/06/14 21:44:21;;;;;;;3.40;2.93;;;;;;;20.70;51.79;96492.34;10338292;28;20505;-30
2023/06/14 21:49:21;;;;;;;2.95;2.65;;;;;;;20.62;51.96;96493.31;10346642;28;20297;-30
2023/06/14 21:54:21;;;;;;;3.03;2.40;;;;;;;20.58;52.02;96505.25;10354497;28;20073;-30
2023/06/14 21:59:22;;;;;;;3.37;2.10;;;;;;;20.57;52.27;96505.25;10353661;28;20026;-31
2023/06/14 22:04:22;;;;;;;2.80;2.33;;;;;;;20.55;52.32;96506.97;10333290;28;20536;-30
2023/06/14 22:09:25;;;;;;;2.90;2.40;;;;;;;20.53;52.08;96509.53;10352862;28;20350;-30
2023/06/14 22:14:30;;;;;;;2.70;2.50;;;;;;;20.52;52.19;96502.75;10340380;28;20042;-30
2023/06/14 22:19:30;;;;;;;3.78;2.80;;;;;;;20.63;51.78;96497.56;10354266;28;20031;-30
2023/06/14 22:24:32;;;;;;;3.47;3.17;;;;;;;20.81;51.14;96498.16;10337483;28;20042;-29
2023/06/14 22:29:32;;;;;;;3.05;2.70;;;;;;;20.83;50.86;96493.91;10342339;28;20041;-30
2023/06/14 22:34:38;;;;;;;3.75;3.05;;;;;;;20.70;51.50;96497.44;10340130;28;20049;-30
2023/06/14 22:39:39;;;;;;;4.43;3.08;;;;;;;20.62;51.91;96496.69;10354926;28;20033;-30
2023/06/14 22:44:40;;;;;;;2.50;2.30;;;;;;;20.56;51.77;96506.94;10334950;28;20045;-30
2023/06/14 22:49:40;;;;;;;2.92;2.40;;;;;;;20.54;52.13;96501.03;10334609;28;20436;-29
2023/06/14 22:54:44;;;;;;;5.47;2.60;;;;;;;20.52;52.00;96504.44;10345402;28;20050;-30
2023/06/14 22:59:44;;;;;;;4.53;2.50;;;;;;;20.53;52.06;96503.56;10334600;28;20056;-30
2023/06/14 23:04:46;;;;;;;3.10;2.57;;;;;;;20.53;52.13;96498.50;10353942;28;20100;-30
2023/06/14 23:09:47;;;;;;;3.85;3.10;;;;;;;20.64;50.17;96497.50;10334462;28;20422;-30
2023/06/14 23:14:48;;;;;;;4.28;3.42;;;;;;;20.80;49.99;96495.63;10343968;28;20033;-30
2023/06/14 23:19:49;;;;;;;4.40;3.45;;;;;;;20.79;49.87;96492.25;10351074;28;20032;-29